createdAt,value
2023-03-27T00:00:29.577Z,36.11
2023-03-27T00:01:00.967Z,35.50
2023-03-27T00:01:32.404Z,35.77
2023-03-27T00:02:03.907Z,35.97
2023-03-27T00:02:35.415Z,35.49
2023-03-27T00:03:07.048Z,35.64
2023-03-27T00:03:38.548Z,35.52
2023-03-27T00:04:10.065Z,35.64
2023-03-27T00:04:41.518Z,35.66
2023-03-27T00:05:12.918Z,35.86
2023-03-27T00:05:44.344Z,36.12
2023-03-27T00:06:15.770Z,35.94
2023-03-27T00:06:47.194Z,35.90
2023-03-27T00:07:18.601Z,35.59
2023-03-27T00:07:50.058Z,35.64
2023-03-27T00:08:21.466Z,35.86
2023-03-27T00:08:52.871Z,36.10
2023-03-27T00:09:24.296Z,35.45
2023-03-27T00:09:55.710Z,35.86
2023-03-27T00:10:27.123Z,35.57
2023-03-27T00:10:58.606Z,35.94
2023-03-27T00:11:30.018Z,36.02
2023-03-27T00:12:01.467Z,35.68
2023-03-27T00:12:32.894Z,35.69
2023-03-27T00:13:04.310Z,35.84
2023-03-27T00:13:35.748Z,35.82
2023-03-27T00:14:13.957Z,35.53
2023-03-27T00:14:45.354Z,35.84
2023-03-27T00:15:16.771Z,35.84
2023-03-27T00:15:48.176Z,35.59
2023-03-27T00:16:19.652Z,35.76
2023-03-27T00:16:51.434Z,35.33
2023-03-27T00:17:22.952Z,35.98
2023-03-27T00:17:54.426Z,35.45
2023-03-27T00:18:25.965Z,35.80
2023-03-27T00:18:57.369Z,36.04
2023-03-27T00:19:28.789Z,35.79
2023-03-27T00:20:00.233Z,35.50
2023-03-27T00:20:31.653Z,35.56
2023-03-27T00:21:03.071Z,35.61
2023-03-27T00:21:34.489Z,35.71
2023-03-27T00:22:05.911Z,35.76
2023-03-27T00:22:37.368Z,35.72
2023-03-27T00:23:08.785Z,35.75
2023-03-27T00:23:40.201Z,35.80
2023-03-27T00:24:11.611Z,36.04
2023-03-27T00:24:43.025Z,35.93
2023-03-27T00:25:14.414Z,35.51
2023-03-27T00:25:45.839Z,35.71
2023-03-27T00:26:17.264Z,35.79
2023-03-27T00:26:48.683Z,35.58
2023-03-27T00:27:20.100Z,36.02
2023-03-27T00:27:51.550Z,35.79
2023-03-27T00:28:23.062Z,35.94
2023-03-27T00:28:54.456Z,35.49
2023-03-27T00:29:25.874Z,35.53
2023-03-27T00:29:57.285Z,35.71
2023-03-27T00:30:28.774Z,35.77
2023-03-27T00:31:00.450Z,35.70
2023-03-27T00:31:32.023Z,35.42
2023-03-27T00:32:03.459Z,35.65
2023-03-27T00:32:34.924Z,36.08
2023-03-27T00:33:06.402Z,35.81
2023-03-27T00:33:37.861Z,35.79
2023-03-27T00:34:09.261Z,35.55
2023-03-27T00:34:40.654Z,35.75
2023-03-27T00:35:12.043Z,35.68
2023-03-27T00:35:43.501Z,35.46
2023-03-27T00:36:14.925Z,35.75
2023-03-27T00:36:46.318Z,35.79
2023-03-27T00:37:17.729Z,35.38
2023-03-27T00:37:49.198Z,36.05
2023-03-27T00:38:20.609Z,36.00
2023-03-27T00:38:52.018Z,36.31
2023-03-27T00:39:23.425Z,35.83
2023-03-27T00:39:54.822Z,36.08
2023-03-27T00:40:26.212Z,35.76
2023-03-27T00:40:57.889Z,36.11
2023-03-27T00:41:29.424Z,35.68
2023-03-27T00:42:00.828Z,35.46
2023-03-27T00:42:32.232Z,36.39
2023-03-27T00:43:03.639Z,35.84
2023-03-27T00:43:35.104Z,35.70
2023-03-27T00:44:06.526Z,35.92
2023-03-27T00:44:39.664Z,35.99
2023-03-27T00:45:11.225Z,35.56
2023-03-27T00:45:42.638Z,35.90
2023-03-27T00:46:14.090Z,35.83
2023-03-27T00:46:45.606Z,35.65
2023-03-27T00:47:17.019Z,35.70
2023-03-27T00:47:48.454Z,35.60
2023-03-27T00:48:19.912Z,36.04
2023-03-27T00:48:51.370Z,35.91
2023-03-27T00:49:22.845Z,35.67
2023-03-27T00:49:54.253Z,35.96
2023-03-27T00:50:25.672Z,35.61
2023-03-27T00:50:57.325Z,35.82
2023-03-27T00:51:28.917Z,36.27
2023-03-27T00:52:00.308Z,36.12
2023-03-27T00:52:31.715Z,35.79
2023-03-27T00:53:03.136Z,36.11
2023-03-27T00:53:34.558Z,35.88
2023-03-27T00:54:06.011Z,36.12
2023-03-27T00:54:37.393Z,35.48
2023-03-27T00:55:08.801Z,36.19
2023-03-27T00:55:40.204Z,35.90
2023-03-27T00:56:11.611Z,35.92
2023-03-27T00:56:43.037Z,35.91
2023-03-27T00:57:14.489Z,36.06
2023-03-27T00:57:46.139Z,36.08
2023-03-27T00:58:17.552Z,35.82
2023-03-27T00:58:48.984Z,35.74
2023-03-27T00:59:20.377Z,35.91
2023-03-27T00:59:51.778Z,35.85
2023-03-27T01:00:23.179Z,35.93
2023-03-27T01:00:54.855Z,35.96
2023-03-27T01:01:26.594Z,35.63
2023-03-27T01:01:58.100Z,36.19
2023-03-27T01:02:29.613Z,36.00
2023-03-27T01:03:01.270Z,36.04
2023-03-27T01:03:32.938Z,35.83
2023-03-27T01:04:04.443Z,36.17
2023-03-27T01:04:35.850Z,35.92
2023-03-27T01:05:07.261Z,35.61
2023-03-27T01:05:38.672Z,35.71
2023-03-27T01:06:10.084Z,36.00
2023-03-27T01:06:41.490Z,36.39
2023-03-27T01:07:12.886Z,36.27
2023-03-27T01:08:01.522Z,35.84
2023-03-27T01:08:33.266Z,35.83
2023-03-27T01:09:04.730Z,35.70
2023-03-27T01:09:36.141Z,35.82
2023-03-27T01:10:07.576Z,35.98
2023-03-27T01:10:38.995Z,35.72
2023-03-27T01:11:10.417Z,35.86
2023-03-27T01:11:41.837Z,35.75
2023-03-27T01:12:13.222Z,35.60
2023-03-27T01:12:44.634Z,36.11
2023-03-27T01:13:16.048Z,35.54
2023-03-27T01:13:47.472Z,35.84
2023-03-27T01:14:18.924Z,35.89
2023-03-27T01:14:50.342Z,36.01
2023-03-27T01:15:21.763Z,36.06
2023-03-27T01:15:53.231Z,35.55
2023-03-27T01:16:24.636Z,35.88
2023-03-27T01:16:56.054Z,35.96
2023-03-27T01:17:27.479Z,36.20
2023-03-27T01:17:59.051Z,36.09
2023-03-27T01:18:30.472Z,35.91
2023-03-27T01:19:01.908Z,36.08
2023-03-27T01:19:33.327Z,35.70
2023-03-27T01:20:04.754Z,35.49
2023-03-27T01:20:36.152Z,35.88
2023-03-27T01:21:07.565Z,36.00
2023-03-27T01:21:38.980Z,35.54
2023-03-27T01:22:10.375Z,35.55
2023-03-27T01:22:41.814Z,36.18
2023-03-27T01:23:13.226Z,36.08
2023-03-27T01:23:59.567Z,35.53
2023-03-27T01:24:32.074Z,35.88
2023-03-27T01:25:03.520Z,36.00
2023-03-27T01:25:34.930Z,35.60
2023-03-27T01:26:06.342Z,35.85
2023-03-27T01:26:37.740Z,35.84
2023-03-27T01:27:09.141Z,35.84
2023-03-27T01:27:40.533Z,35.78
2023-03-27T01:28:11.927Z,36.02
2023-03-27T01:28:43.343Z,36.12
2023-03-27T01:29:14.749Z,35.53
2023-03-27T01:29:46.181Z,35.54
2023-03-27T01:30:17.597Z,36.14
2023-03-27T01:30:49.058Z,36.18
2023-03-27T01:31:20.502Z,35.71
2023-03-27T01:31:51.997Z,35.94
2023-03-27T01:32:23.472Z,35.80
2023-03-27T01:32:55.117Z,35.63
2023-03-27T01:33:26.622Z,35.40
2023-03-27T01:33:58.081Z,35.92
2023-03-27T01:34:29.488Z,35.31
2023-03-27T01:35:02.316Z,35.52
2023-03-27T01:35:34.958Z,35.45
2023-03-27T01:36:06.369Z,35.98
2023-03-27T01:36:37.779Z,35.73
2023-03-27T01:37:09.189Z,35.81
2023-03-27T01:37:40.610Z,35.68
2023-03-27T01:38:12.021Z,35.74
2023-03-27T01:38:43.429Z,35.56
2023-03-27T01:39:14.841Z,35.58
2023-03-27T01:39:46.295Z,35.59
2023-03-27T01:40:17.705Z,35.66
2023-03-27T01:40:49.180Z,35.98
2023-03-27T01:41:20.588Z,35.88
2023-03-27T01:41:51.983Z,35.97
2023-03-27T01:42:23.395Z,35.83
2023-03-27T01:42:54.811Z,35.76
2023-03-27T01:43:26.228Z,35.60
2023-03-27T01:43:57.625Z,35.77
2023-03-27T01:44:43.512Z,35.65
2023-03-27T01:45:16.672Z,35.36
2023-03-27T01:45:48.106Z,35.82
2023-03-27T01:46:19.575Z,35.82
2023-03-27T01:46:51.098Z,35.98
2023-03-27T01:47:22.620Z,35.42
2023-03-27T01:47:54.157Z,35.46
2023-03-27T01:48:25.612Z,36.01
2023-03-27T01:48:57.005Z,35.46
2023-03-27T01:49:28.403Z,35.60
2023-03-27T01:49:59.809Z,35.79
2023-03-27T01:50:31.215Z,35.80
2023-03-27T01:51:02.649Z,35.50
2023-03-27T01:51:34.084Z,35.74
2023-03-27T01:52:05.485Z,35.68
2023-03-27T01:52:36.904Z,35.58
2023-03-27T01:53:08.310Z,35.84
2023-03-27T01:53:39.713Z,35.44
2023-03-27T01:54:11.108Z,35.88
2023-03-27T01:54:42.535Z,35.51
2023-03-27T01:55:13.961Z,35.47
2023-03-27T01:55:45.383Z,35.68
2023-03-27T01:56:16.800Z,35.84
2023-03-27T01:56:48.223Z,35.63
2023-03-27T01:57:19.626Z,35.78
2023-03-27T01:57:51.033Z,35.80
2023-03-27T01:58:22.448Z,35.82
2023-03-27T01:58:53.848Z,35.94
2023-03-27T01:59:25.258Z,35.78
2023-03-27T01:59:56.674Z,35.41
2023-03-27T02:00:52.046Z,36.05
2023-03-27T02:01:24.823Z,36.02
2023-03-27T02:01:56.237Z,35.87
2023-03-27T02:02:27.651Z,35.86
2023-03-27T02:02:59.132Z,35.59
2023-03-27T02:03:30.555Z,35.95
2023-03-27T02:04:01.950Z,35.96
2023-03-27T02:04:33.421Z,35.88
2023-03-27T02:05:04.944Z,35.84
2023-03-27T02:05:36.418Z,36.16
2023-03-27T02:06:07.845Z,36.01
2023-03-27T02:06:39.242Z,36.15
2023-03-27T02:07:10.641Z,36.00
2023-03-27T02:07:42.030Z,36.12
2023-03-27T02:08:13.479Z,36.11
2023-03-27T02:08:44.895Z,36.15
2023-03-27T02:09:16.296Z,35.87
2023-03-27T02:09:47.697Z,36.04
2023-03-27T02:10:19.138Z,35.88
2023-03-27T02:10:50.559Z,35.83
2023-03-27T02:11:21.983Z,35.56
2023-03-27T02:11:53.389Z,36.08
2023-03-27T02:12:24.804Z,35.87
2023-03-27T02:12:56.210Z,36.00
2023-03-27T02:13:27.602Z,36.08
2023-03-27T02:13:59.013Z,36.07
2023-03-27T02:14:30.414Z,35.70
2023-03-27T02:15:24.021Z,35.48
2023-03-27T02:15:53.271Z,35.95
2023-03-27T02:16:24.757Z,35.88
2023-03-27T02:16:56.186Z,35.93
2023-03-27T02:17:27.616Z,35.92
2023-03-27T02:17:59.082Z,36.26
2023-03-27T02:18:30.552Z,35.96
2023-03-27T02:19:01.971Z,36.20
2023-03-27T02:19:33.378Z,35.89
2023-03-27T02:20:04.779Z,35.66
2023-03-27T02:20:36.203Z,35.85
2023-03-27T02:21:07.692Z,35.71
2023-03-27T02:21:39.077Z,35.63
2023-03-27T02:22:10.539Z,35.68
2023-03-27T02:22:41.931Z,35.98
2023-03-27T02:23:13.327Z,36.18
2023-03-27T02:23:44.749Z,35.67
2023-03-27T02:24:16.156Z,36.17
2023-03-27T02:24:47.579Z,36.19
2023-03-27T02:25:19.002Z,35.62
2023-03-27T02:25:50.409Z,35.93
2023-03-27T02:26:21.827Z,35.94
2023-03-27T02:26:53.245Z,36.32
2023-03-27T02:27:24.682Z,35.64
2023-03-27T02:27:56.080Z,35.71
2023-03-27T02:28:27.489Z,35.68
2023-03-27T02:28:58.899Z,35.67
2023-03-27T02:29:30.287Z,35.91
2023-03-27T02:30:01.706Z,35.91
2023-03-27T02:30:33.121Z,35.62
2023-03-27T02:31:05.669Z,36.04
2023-03-27T02:31:55.972Z,35.89
2023-03-27T02:32:27.507Z,35.91
2023-03-27T02:32:59.069Z,35.89
2023-03-27T02:33:30.509Z,36.29
2023-03-27T02:34:01.910Z,35.64
2023-03-27T02:34:33.324Z,35.94
2023-03-27T02:35:04.740Z,36.13
2023-03-27T02:35:36.170Z,35.93
2023-03-27T02:36:08.818Z,35.90
2023-03-27T02:36:42.081Z,35.75
2023-03-27T02:37:13.496Z,35.91
2023-03-27T02:37:45.006Z,35.64
2023-03-27T02:38:16.429Z,35.73
2023-03-27T02:38:47.839Z,35.93
2023-03-27T02:39:19.252Z,35.84
2023-03-27T02:39:50.686Z,36.23
2023-03-27T02:40:22.099Z,35.97
2023-03-27T02:40:53.526Z,35.87
2023-03-27T02:41:24.929Z,35.75
2023-03-27T02:41:56.345Z,35.95
2023-03-27T02:42:27.745Z,35.98
2023-03-27T02:42:59.162Z,35.77
2023-03-27T02:43:30.576Z,35.78
2023-03-27T02:44:01.993Z,36.14
2023-03-27T02:44:33.397Z,35.98
2023-03-27T02:45:04.807Z,36.08
2023-03-27T02:45:36.247Z,35.92
2023-03-27T02:46:07.705Z,36.17
2023-03-27T02:46:39.161Z,36.09
2023-03-27T02:47:10.570Z,35.98
2023-03-27T02:47:41.975Z,35.94
2023-03-27T02:48:13.442Z,35.98
2023-03-27T02:48:44.873Z,36.04
2023-03-27T02:49:16.282Z,35.81
2023-03-27T02:49:47.691Z,36.08
2023-03-27T02:50:19.102Z,36.27
2023-03-27T02:50:50.517Z,36.25
2023-03-27T02:51:21.932Z,35.88
2023-03-27T02:51:53.318Z,35.87
2023-03-27T02:52:24.730Z,36.06
2023-03-27T02:52:56.144Z,36.30
2023-03-27T02:53:30.300Z,36.13
2023-03-27T02:54:01.725Z,36.13
2023-03-27T02:54:33.122Z,36.03
2023-03-27T02:55:04.536Z,35.70
2023-03-27T02:55:35.948Z,36.17
2023-03-27T02:56:07.366Z,36.02
2023-03-27T02:56:38.809Z,35.93
2023-03-27T02:57:10.283Z,36.00
2023-03-27T02:57:41.714Z,36.25
2023-03-27T02:58:23.778Z,35.65
2023-03-27T02:58:55.251Z,35.95
2023-03-27T02:59:26.657Z,36.24
2023-03-27T02:59:58.068Z,35.93
2023-03-27T03:00:29.471Z,36.04
2023-03-27T03:01:01.005Z,36.19
2023-03-27T03:01:32.561Z,35.83
2023-03-27T03:02:04.038Z,35.64
2023-03-27T03:02:35.573Z,36.30
2023-03-27T03:03:07.158Z,36.04
2023-03-27T03:03:38.729Z,35.76
2023-03-27T03:04:10.205Z,35.98
2023-03-27T03:04:41.683Z,36.15
2023-03-27T03:05:13.125Z,35.74
2023-03-27T03:05:44.526Z,36.28
2023-03-27T03:06:15.944Z,36.16
2023-03-27T03:06:47.358Z,36.25
2023-03-27T03:07:18.746Z,36.28
2023-03-27T03:07:50.154Z,35.67
2023-03-27T03:08:21.593Z,35.83
2023-03-27T03:08:53.024Z,35.99
2023-03-27T03:09:24.445Z,35.81
2023-03-27T03:09:55.856Z,36.05
2023-03-27T03:10:27.276Z,35.71
2023-03-27T03:10:58.692Z,36.24
2023-03-27T03:11:30.097Z,35.95
2023-03-27T03:12:01.493Z,36.29
2023-03-27T03:12:32.921Z,36.22
2023-03-27T03:13:04.322Z,36.07
2023-03-27T03:13:35.722Z,36.17
2023-03-27T03:14:07.135Z,35.75
2023-03-27T03:14:38.545Z,36.02
2023-03-27T03:15:09.957Z,36.47
2023-03-27T03:15:41.362Z,36.06
2023-03-27T03:16:12.803Z,36.07
2023-03-27T03:16:44.282Z,36.11
2023-03-27T03:17:15.821Z,35.91
2023-03-27T03:17:47.271Z,35.93
2023-03-27T03:18:18.691Z,35.99
2023-03-27T03:18:50.104Z,36.35
2023-03-27T03:19:21.495Z,36.11
2023-03-27T03:19:52.929Z,36.02
2023-03-27T03:20:24.344Z,35.74
2023-03-27T03:20:56.019Z,35.79
2023-03-27T03:21:27.581Z,36.01
2023-03-27T03:21:59.078Z,35.95
2023-03-27T03:22:30.539Z,35.94
2023-03-27T03:23:01.957Z,36.14
2023-03-27T03:23:33.365Z,36.15
2023-03-27T03:24:04.757Z,35.88
2023-03-27T03:24:36.178Z,36.23
2023-03-27T03:25:07.580Z,36.17
2023-03-27T03:25:39.017Z,35.99
2023-03-27T03:26:10.443Z,35.92
2023-03-27T03:26:41.847Z,36.22
2023-03-27T03:27:13.247Z,36.28
2023-03-27T03:27:44.637Z,35.94
2023-03-27T03:28:16.054Z,35.88
2023-03-27T03:29:00.824Z,35.73
2023-03-27T03:29:32.897Z,36.19
2023-03-27T03:30:04.344Z,35.76
2023-03-27T03:30:35.775Z,36.25
2023-03-27T03:31:07.254Z,35.75
2023-03-27T03:31:38.692Z,35.73
2023-03-27T03:32:10.102Z,36.07
2023-03-27T03:32:41.508Z,36.09
2023-03-27T03:33:12.953Z,35.81
2023-03-27T03:33:44.349Z,35.63
2023-03-27T03:34:15.762Z,36.39
2023-03-27T03:34:47.169Z,35.92
2023-03-27T03:35:18.594Z,35.97
2023-03-27T03:35:50.033Z,35.64
2023-03-27T03:36:21.459Z,36.36
2023-03-27T03:36:52.872Z,35.73
2023-03-27T03:37:24.281Z,35.88
2023-03-27T03:37:55.686Z,35.64
2023-03-27T03:38:27.113Z,35.92
2023-03-27T03:38:58.517Z,35.97
2023-03-27T03:39:29.930Z,35.93
2023-03-27T03:40:01.395Z,36.20
2023-03-27T03:40:32.818Z,35.67
2023-03-27T03:41:04.239Z,35.77
2023-03-27T03:41:35.644Z,35.69
2023-03-27T03:42:07.057Z,35.70
2023-03-27T03:42:38.459Z,36.19
2023-03-27T03:43:09.893Z,36.16
2023-03-27T03:43:41.294Z,36.22
2023-03-27T03:44:12.719Z,35.98
2023-03-27T03:44:44.136Z,36.01
2023-03-27T03:45:15.526Z,35.92
2023-03-27T03:45:47.009Z,35.96
2023-03-27T03:46:18.453Z,35.83
2023-03-27T03:46:49.874Z,35.81
2023-03-27T03:47:21.272Z,36.20
2023-03-27T03:47:52.664Z,36.10
2023-03-27T03:48:25.502Z,36.40
2023-03-27T03:48:58.953Z,35.92
2023-03-27T03:49:30.733Z,35.96
2023-03-27T03:50:02.168Z,36.11
2023-03-27T03:50:33.584Z,36.17
2023-03-27T03:51:05.026Z,35.86
2023-03-27T03:51:36.438Z,35.66
2023-03-27T03:52:07.837Z,36.02
2023-03-27T03:52:39.282Z,35.93
2023-03-27T03:53:10.691Z,35.64
2023-03-27T03:53:42.117Z,36.19
2023-03-27T03:54:13.523Z,35.90
2023-03-27T03:54:46.666Z,35.71
2023-03-27T03:55:18.330Z,36.00
2023-03-27T03:55:49.717Z,36.25
2023-03-27T03:56:21.182Z,35.55
2023-03-27T03:56:52.611Z,36.33
2023-03-27T03:57:24.131Z,35.73
2023-03-27T03:57:55.693Z,36.26
2023-03-27T03:58:34.961Z,36.14
2023-03-27T03:59:06.625Z,35.74
2023-03-27T03:59:38.037Z,35.77
2023-03-27T04:00:09.446Z,36.00
2023-03-27T04:00:40.862Z,35.96
2023-03-27T04:01:12.266Z,35.98
2023-03-27T04:01:43.725Z,35.68
2023-03-27T04:02:15.167Z,35.68
2023-03-27T04:02:46.698Z,35.86
2023-03-27T04:03:18.188Z,36.15
2023-03-27T04:03:49.753Z,35.61
2023-03-27T04:04:21.285Z,35.53
2023-03-27T04:04:52.700Z,36.02
2023-03-27T04:05:24.113Z,35.69
2023-03-27T04:05:55.539Z,36.26
2023-03-27T04:06:26.943Z,35.79
2023-03-27T04:06:58.497Z,35.85
2023-03-27T04:07:29.939Z,36.00
2023-03-27T04:08:01.342Z,36.12
2023-03-27T04:08:32.796Z,35.75
2023-03-27T04:09:04.178Z,36.11
2023-03-27T04:09:35.596Z,36.20
2023-03-27T04:10:07.008Z,35.62
2023-03-27T04:10:38.404Z,36.20
2023-03-27T04:11:09.823Z,35.62
2023-03-27T04:11:41.235Z,35.53
2023-03-27T04:12:12.665Z,36.19
2023-03-27T04:12:44.085Z,36.33
2023-03-27T04:13:15.581Z,36.27
2023-03-27T04:13:47.043Z,36.22
2023-03-27T04:14:18.457Z,35.80
2023-03-27T04:14:49.863Z,35.85
2023-03-27T04:15:21.274Z,36.11
2023-03-27T04:15:52.732Z,35.56
2023-03-27T04:16:24.202Z,36.00
2023-03-27T04:16:55.697Z,35.95
2023-03-27T04:17:27.230Z,36.29
2023-03-27T04:17:58.734Z,35.74
2023-03-27T04:18:30.280Z,36.19
2023-03-27T04:19:01.822Z,35.91
2023-03-27T04:19:33.256Z,36.23
2023-03-27T04:20:04.665Z,35.76
2023-03-27T04:20:36.082Z,36.33
2023-03-27T04:21:07.492Z,35.90
2023-03-27T04:21:38.944Z,36.08
2023-03-27T04:22:10.366Z,36.18
2023-03-27T04:22:41.810Z,36.30
2023-03-27T04:23:13.218Z,35.89
2023-03-27T04:23:44.626Z,35.72
2023-03-27T04:24:16.018Z,35.99
2023-03-27T04:24:47.426Z,35.63
2023-03-27T04:25:18.839Z,36.00
2023-03-27T04:25:50.274Z,35.65
2023-03-27T04:26:21.731Z,35.96
2023-03-27T04:26:53.163Z,35.89
2023-03-27T04:27:24.582Z,35.79
2023-03-27T04:27:56.007Z,36.03
2023-03-27T04:28:27.408Z,36.12
2023-03-27T04:28:58.820Z,35.63
2023-03-27T04:29:30.262Z,35.87
2023-03-27T04:30:01.678Z,35.73
2023-03-27T04:30:33.071Z,35.53
2023-03-27T04:31:04.582Z,35.68
2023-03-27T04:31:36.095Z,35.62
2023-03-27T04:32:07.594Z,36.06
2023-03-27T04:32:39.058Z,35.69
2023-03-27T04:33:10.545Z,35.88
2023-03-27T04:33:41.967Z,35.54
2023-03-27T04:34:13.376Z,35.65
2023-03-27T04:34:44.764Z,35.61
2023-03-27T04:35:16.183Z,35.87
2023-03-27T04:36:05.522Z,36.09
2023-03-27T04:36:38.931Z,35.72
2023-03-27T04:37:10.337Z,36.08
2023-03-27T04:37:41.748Z,36.01
2023-03-27T04:38:13.210Z,36.02
2023-03-27T04:38:44.602Z,35.96
2023-03-27T04:39:16.009Z,35.92
2023-03-27T04:39:47.463Z,35.74
2023-03-27T04:40:18.887Z,35.64
2023-03-27T04:40:50.315Z,35.92
2023-03-27T04:41:21.717Z,36.02
2023-03-27T04:41:53.130Z,36.09
2023-03-27T04:42:24.547Z,36.14
2023-03-27T04:42:56.020Z,35.89
2023-03-27T04:43:27.486Z,36.13
2023-03-27T04:43:58.898Z,35.83
2023-03-27T04:44:30.313Z,36.01
2023-03-27T04:45:01.737Z,36.21
2023-03-27T04:45:33.160Z,35.51
2023-03-27T04:46:04.575Z,35.81
2023-03-27T04:46:36.022Z,35.91
2023-03-27T04:47:08.727Z,35.67
2023-03-27T04:47:40.488Z,35.63
2023-03-27T04:48:11.946Z,35.61
2023-03-27T04:48:43.375Z,35.83
2023-03-27T04:49:14.763Z,35.60
2023-03-27T04:49:46.164Z,36.13
2023-03-27T04:50:17.562Z,35.52
2023-03-27T04:50:48.956Z,35.69
2023-03-27T04:51:20.372Z,35.31
2023-03-27T04:51:51.762Z,35.81
2023-03-27T04:52:23.185Z,35.71
2023-03-27T04:52:54.593Z,35.50
2023-03-27T04:53:25.998Z,35.77
2023-03-27T04:53:57.399Z,35.75
2023-03-27T04:54:28.797Z,35.39
2023-03-27T04:55:00.190Z,35.79
2023-03-27T04:55:31.653Z,36.00
2023-03-27T04:56:03.052Z,35.63
2023-03-27T04:56:34.616Z,35.78
2023-03-27T04:57:06.111Z,36.03
2023-03-27T04:57:37.526Z,36.00
2023-03-27T04:58:08.974Z,35.80
2023-03-27T04:58:40.405Z,36.01
2023-03-27T04:59:11.832Z,35.71
2023-03-27T04:59:43.247Z,35.97
2023-03-27T05:00:14.658Z,35.75
2023-03-27T05:00:46.080Z,35.92
2023-03-27T05:01:17.560Z,36.00
2023-03-27T05:01:49.035Z,36.08
2023-03-27T05:02:20.493Z,35.61
2023-03-27T05:02:51.968Z,35.89
2023-03-27T05:03:23.556Z,35.61
2023-03-27T05:03:55.051Z,35.48
2023-03-27T05:04:26.503Z,35.42
2023-03-27T05:04:57.897Z,35.46
2023-03-27T05:05:29.286Z,35.66
2023-03-27T05:06:00.701Z,35.84
2023-03-27T05:06:32.097Z,36.08
2023-03-27T05:07:03.495Z,35.65
2023-03-27T05:07:34.935Z,35.75
2023-03-27T05:08:06.348Z,35.80
2023-03-27T05:08:37.735Z,35.64
2023-03-27T05:09:09.147Z,35.74
2023-03-27T05:09:40.548Z,35.62
2023-03-27T05:10:11.959Z,35.48
2023-03-27T05:10:43.361Z,35.71
2023-03-27T05:11:14.761Z,35.60
2023-03-27T05:11:46.148Z,35.25
2023-03-27T05:12:17.546Z,35.67
2023-03-27T05:12:48.944Z,36.00
2023-03-27T05:13:20.339Z,35.71
2023-03-27T05:13:51.744Z,35.57
2023-03-27T05:14:23.178Z,35.65
2023-03-27T05:14:54.572Z,35.59
2023-03-27T05:15:25.976Z,35.58
2023-03-27T05:15:57.440Z,35.64
2023-03-27T05:16:28.899Z,35.42
2023-03-27T05:17:00.325Z,35.71
2023-03-27T05:17:31.743Z,35.61
2023-03-27T05:18:03.253Z,35.72
2023-03-27T05:18:34.724Z,35.94
2023-03-27T05:19:06.202Z,35.55
2023-03-27T05:19:37.611Z,35.37
2023-03-27T05:20:09.008Z,35.64
2023-03-27T05:20:40.423Z,35.43
2023-03-27T05:21:11.839Z,35.34
2023-03-27T05:21:43.273Z,35.49
2023-03-27T05:22:14.691Z,35.61
2023-03-27T05:22:46.109Z,35.74
2023-03-27T05:23:17.523Z,35.74
2023-03-27T05:23:48.919Z,35.46
2023-03-27T05:24:20.326Z,35.66
2023-03-27T05:24:51.767Z,35.34
2023-03-27T05:25:23.173Z,35.42
2023-03-27T05:25:59.819Z,35.67
2023-03-27T05:26:31.807Z,36.10
2023-03-27T05:27:03.238Z,35.47
2023-03-27T05:27:34.626Z,36.01
2023-03-27T05:28:06.044Z,35.48
2023-03-27T05:28:37.462Z,35.71
2023-03-27T05:29:08.888Z,35.88
2023-03-27T05:29:46.929Z,35.96
2023-03-27T05:30:19.032Z,35.36
2023-03-27T05:30:50.454Z,35.85
2023-03-27T05:31:21.956Z,35.78
2023-03-27T05:31:53.384Z,35.80
2023-03-27T05:32:24.812Z,35.55
2023-03-27T05:32:56.280Z,35.88
2023-03-27T05:33:28.160Z,35.44
2023-03-27T05:33:59.601Z,35.50
2023-03-27T05:34:31.009Z,36.11
2023-03-27T05:35:02.414Z,35.95
2023-03-27T05:35:33.866Z,35.53
2023-03-27T05:36:05.365Z,35.96
2023-03-27T05:36:36.786Z,35.47
2023-03-27T05:37:08.200Z,35.49
2023-03-27T05:37:39.604Z,35.80
2023-03-27T05:38:11.033Z,35.89
2023-03-27T05:38:42.465Z,35.36
2023-03-27T05:39:13.892Z,35.72
2023-03-27T05:39:45.293Z,35.58
2023-03-27T05:40:16.701Z,35.50
2023-03-27T05:40:48.102Z,35.96
2023-03-27T05:41:19.530Z,35.57
2023-03-27T05:41:50.946Z,35.97
2023-03-27T05:42:22.421Z,35.74
2023-03-27T05:42:53.821Z,35.54
2023-03-27T05:43:25.235Z,35.88
2023-03-27T05:43:56.639Z,35.75
2023-03-27T05:44:28.034Z,35.59
2023-03-27T05:44:59.429Z,35.58
2023-03-27T05:45:30.884Z,35.63
2023-03-27T05:46:02.339Z,35.82
2023-03-27T05:46:33.800Z,35.56
2023-03-27T05:47:05.251Z,35.49
2023-03-27T05:47:36.729Z,35.60
2023-03-27T05:48:08.191Z,36.18
2023-03-27T05:48:39.611Z,36.04
2023-03-27T05:49:11.026Z,35.72
2023-03-27T05:49:42.433Z,35.79
2023-03-27T05:50:13.827Z,35.49
2023-03-27T05:50:45.357Z,36.06
2023-03-27T05:51:16.779Z,36.10
2023-03-27T05:51:48.189Z,35.77
2023-03-27T05:52:19.612Z,35.93
2023-03-27T05:52:51.004Z,35.56
2023-03-27T05:53:28.386Z,35.44
2023-03-27T05:54:00.502Z,35.52
2023-03-27T05:54:31.929Z,35.57
2023-03-27T05:55:03.327Z,36.21
2023-03-27T05:55:34.751Z,35.84
2023-03-27T05:56:06.246Z,35.97
2023-03-27T05:56:37.674Z,35.67
2023-03-27T05:57:09.155Z,35.65
2023-03-27T05:57:40.642Z,35.86
2023-03-27T05:58:12.054Z,35.82
2023-03-27T05:58:43.451Z,35.88
2023-03-27T05:59:14.861Z,35.54
2023-03-27T05:59:46.251Z,35.68
2023-03-27T06:00:17.642Z,35.95
2023-03-27T06:00:49.034Z,35.94
2023-03-27T06:01:20.460Z,35.65
2023-03-27T06:01:51.874Z,36.11
2023-03-27T06:02:23.411Z,35.54
2023-03-27T06:02:54.987Z,36.01
2023-03-27T06:03:26.676Z,35.91
2023-03-27T06:03:58.289Z,35.84
2023-03-27T06:04:29.806Z,35.84
2023-03-27T06:05:01.315Z,35.80
2023-03-27T06:05:32.771Z,36.23
2023-03-27T06:06:04.163Z,35.64
2023-03-27T06:06:35.584Z,36.01
2023-03-27T06:07:06.997Z,35.94
2023-03-27T06:07:39.439Z,36.16
2023-03-27T06:08:11.820Z,35.76
2023-03-27T06:08:43.254Z,36.11
2023-03-27T06:09:14.709Z,36.02
2023-03-27T06:09:46.160Z,35.95
2023-03-27T06:10:17.570Z,35.93
2023-03-27T06:10:48.985Z,35.99
2023-03-27T06:11:20.379Z,35.63
2023-03-27T06:11:52.086Z,36.17
2023-03-27T06:12:23.615Z,36.31
2023-03-27T06:12:55.014Z,35.67
2023-03-27T06:13:26.408Z,36.11
2023-03-27T06:13:58.718Z,36.10
2023-03-27T06:14:30.348Z,35.71
2023-03-27T06:15:01.776Z,35.97
2023-03-27T06:15:33.221Z,35.98
2023-03-27T06:16:04.736Z,35.47
2023-03-27T06:16:36.167Z,35.88
2023-03-27T06:17:07.558Z,35.81
2023-03-27T06:17:39.032Z,35.97
2023-03-27T06:18:10.520Z,35.99
2023-03-27T06:18:41.951Z,35.52
2023-03-27T06:19:13.350Z,35.83
2023-03-27T06:19:44.781Z,36.27
2023-03-27T06:20:16.178Z,35.98
2023-03-27T06:20:47.632Z,35.82
2023-03-27T06:21:19.030Z,36.15
2023-03-27T06:21:50.438Z,35.93
2023-03-27T06:22:21.858Z,35.75
2023-03-27T06:22:53.261Z,36.16
2023-03-27T06:23:24.675Z,36.09
2023-03-27T06:23:56.093Z,35.82
2023-03-27T06:24:27.511Z,36.00
2023-03-27T06:24:58.897Z,35.77
2023-03-27T06:25:30.305Z,35.82
2023-03-27T06:26:01.713Z,35.90
2023-03-27T06:26:33.102Z,35.84
2023-03-27T06:27:04.509Z,36.13
2023-03-27T06:27:35.943Z,36.55
2023-03-27T06:28:07.420Z,36.61
2023-03-27T06:28:38.816Z,35.91
2023-03-27T06:29:10.221Z,36.31
2023-03-27T06:29:41.624Z,36.26
2023-03-27T06:30:13.047Z,36.25
2023-03-27T06:30:44.453Z,35.92
2023-03-27T06:31:15.930Z,36.16
2023-03-27T06:31:47.372Z,36.04
2023-03-27T06:32:18.785Z,36.13
2023-03-27T06:32:50.213Z,36.38
2023-03-27T06:33:21.662Z,36.24
2023-03-27T06:33:53.053Z,36.16
2023-03-27T06:34:24.481Z,36.71
2023-03-27T06:34:55.892Z,36.68
2023-03-27T06:35:27.295Z,36.54
2023-03-27T06:35:59.090Z,36.62
2023-03-27T06:36:30.933Z,36.80
2023-03-27T06:37:02.340Z,36.58
2023-03-27T06:37:33.772Z,36.79
2023-03-27T06:38:05.183Z,36.96
2023-03-27T06:38:36.602Z,37.12
2023-03-27T06:39:08.018Z,37.04
2023-03-27T06:39:39.421Z,36.93
2023-03-27T06:40:10.826Z,36.79
2023-03-27T06:40:42.216Z,37.19
2023-03-27T06:41:13.632Z,36.88
2023-03-27T06:41:45.050Z,37.10
2023-03-27T06:42:16.470Z,37.87
2023-03-27T06:42:47.861Z,37.61
2023-03-27T06:43:19.279Z,37.58
2023-03-27T06:43:50.688Z,37.62
2023-03-27T06:44:22.107Z,37.42
2023-03-27T06:44:53.510Z,37.57
2023-03-27T06:45:24.933Z,37.87
2023-03-27T06:45:56.575Z,37.84
2023-03-27T06:46:38.933Z,38.06
2023-03-27T06:47:16.504Z,37.93
2023-03-27T06:47:53.689Z,38.21
2023-03-27T06:48:26.793Z,38.26
2023-03-27T06:48:58.252Z,38.08